This is the latest recevied weather packets stored in our database for station/object DB0ADS-6. If no packets are shown the sender has not sent any weather packets the latest 10 day(s).
| Time | Temp. | Humidity | Pressure | Rain* | Wind** | Luminosity | Snow |
|---|---|---|---|---|---|---|---|
| 1777839938 | 18.33° C | 46% | 1011.5 hPa | 0 mm | - | - | - |
| 1777839638 | 18.33° C | 46% | 1011.5 hPa | 0 mm | - | - | - |
| 1777839033 | 18.33° C | 47% | 1011.4 hPa | 0 mm | - | - | - |
| 1777838734 | 18.33° C | 47% | 1011.4 hPa | 0 mm | - | - | - |
| 1777838430 | 18.33° C | 47% | 1011.3 hPa | 0 mm | - | - | - |
| 1777838128 | 18.33° C | 46% | 1011.2 hPa | 0 mm | - | - | - |
| 1777837525 | 18.89° C | 44% | 1011.2 hPa | 0 mm | - | - | - |
| 1777837223 | 18.89° C | 44% | 1011 hPa | 0 mm | - | - | - |
| 1777836620 | 18.89° C | 44% | 1010.9 hPa | 0 mm | - | - | - |
| 1777835775 | 19.44° C | 45% | 1010.6 hPa | 0 mm | - | - | - |
| 1777834870 | 19.44° C | 44% | 1010.7 hPa | 0 mm | - | - | - |
| 1777833361 | 19.44° C | 45% | 1010.7 hPa | 0 mm | - | - | - |
| 1777833061 | 18.89° C | 46% | 1010.7 hPa | 0 mm | - | - | - |
| 1777832758 | 18.89° C | 47% | 1010.7 hPa | 0 mm | - | - | - |
| 1777832154 | 18.89° C | 47% | 1010.6 hPa | 0 mm | - | - | - |
| 1777831852 | 18.89° C | 47% | 1010.6 hPa | 0 mm | - | - | - |
| 1777831551 | 19.44° C | 48% | 1010.5 hPa | 0 mm | - | - | - |
| 1777829438 | 21.11° C | 42% | 1010.5 hPa | 0 mm | - | - | - |
| 1777829136 | 21.11° C | 41% | 1010.4 hPa | 0 mm | - | - | - |
| 1777827627 | 22.22° C | 38% | 1010.5 hPa | 0 mm | - | - | - |
| 1777827353 | 22.22° C | 38% | 1010.6 hPa | 0 mm | - | - | - |
| 1777827024 | 22.22° C | 38% | 1010.5 hPa | 0 mm | - | - | - |
| 1777826421 | 21.67° C | 39% | 1010.5 hPa | 0 mm | - | - | - |
| 1777825817 | 21.67° C | 38% | 1010.6 hPa | 0 mm | - | - | - |
| 1777824972 | 21.67° C | 37% | 1010.7 hPa | 0 mm | - | - | - |
* Rain latest hour (hover to see other rain measurements)
** Current wind speed in m/s (hover to see current wind gust speed)